首页
METAR-TAF:

METAR-TAF

机场 :

科隆/波恩機場

科隆, 德国

纬度: 50-52N, 经度: 007-10E, 海拔: 91米

当前天气观测

该预报发布于34分钟前的02:50 UTC
风速2节,风向多变
温度 11°C
湿度 94%
气压 1022 hPa
能见度10公里或以上
1500米以下无云,无积雨云

METAR: EDDK 170250Z VRB02KT CAVOK 11/10 Q1022 NOSIG

时间: 05:24 (03:24 UTC)

预报

该预报发布于4小时和24分钟前的23:00 UTC
预报有效从17日的 00点(UTC)到 18日的 06点(UTC)
风速2节,风向多变
能见度10公里或以上
1500米以下无云,无积雨云
成为
从 17日的 07点(UTC)到 17日的 09点(UTC)
风速6节,风向东南
成为
从 17日的 18点(UTC)到 17日的 21点(UTC)
风速3节,风向多变

TAF: EDDK 162300Z 1700/1806 VRB02KT CAVOK BECMG 1707/1709 13006KT BECMG 1718/1721 VRB03KT

超过4000个机场的气象观测和天气预报(METAR&TAF报告)。

可查询的气象台以黄色和红色小点在地图上表示。

将鼠标移到小点上方,可查看气象台名称。

然后点击查看天气观测和预报。

如需切换地图:点击带黑十字的绿色按钮放大地图;点击带横线的绿色按钮缩小地图;或者点击绿色箭头查看邻近地区的地图。


METAR-TAF: